createdAt,value
2023-01-26T00:03:00.285Z,17.50
2023-01-26T00:07:13.989Z,5.22
2023-01-26T00:11:30.770Z,3.45
2023-01-26T00:20:10.220Z,1.63
2023-01-26T00:24:24.369Z,1.27
2023-01-26T00:28:37.113Z,2.85
2023-01-26T00:32:50.526Z,10.63
2023-01-26T00:37:03.636Z,17.83
2023-01-26T00:41:35.866Z,24.73
2023-01-26T00:45:48.370Z,26.27
2023-01-26T00:50:01.730Z,31.50
2023-01-26T00:54:15.818Z,30.23
2023-01-26T00:58:28.878Z,30.17
2023-01-26T01:02:41.857Z,35.80
2023-01-26T01:06:54.210Z,34.65
2023-01-26T01:11:09.200Z,27.30
2023-01-26T01:15:27.874Z,27.55
2023-01-26T01:19:40.161Z,33.58
2023-01-26T01:23:52.697Z,34.13
2023-01-26T01:28:07.879Z,36.97
2023-01-26T01:32:20.979Z,30.13
2023-01-26T01:36:34.483Z,28.92
2023-01-26T01:40:47.925Z,28.20
2023-01-26T01:45:38.512Z,29.17
2023-01-26T01:49:53.545Z,25.10
2023-01-26T01:54:11.983Z,24.70
2023-01-26T01:58:26.068Z,25.38
2023-01-26T02:02:38.842Z,27.55
2023-01-26T02:06:56.626Z,29.88
2023-01-26T02:11:45.887Z,25.00
2023-01-26T02:16:01.765Z,26.92
2023-01-26T02:20:28.808Z,22.33
2023-01-26T02:24:41.863Z,24.23
2023-01-26T02:28:58.338Z,21.63
2023-01-26T02:33:26.372Z,19.35
2023-01-26T02:37:42.303Z,6.68
2023-01-26T02:42:13.818Z,3.70
2023-01-26T02:46:26.340Z,1.42
2023-01-26T02:50:41.903Z,1.67
2023-01-26T02:55:14.673Z,5.78
2023-01-26T02:59:28.488Z,6.18
2023-01-26T03:03:45.316Z,2.40
2023-01-26T03:07:59.437Z,1.95
2023-01-26T03:12:17.434Z,2.75
2023-01-26T03:16:29.869Z,5.80
2023-01-26T03:21:04.058Z,8.15
2023-01-26T03:25:36.165Z,13.88
2023-01-26T03:29:50.716Z,9.48
2023-01-26T03:34:04.802Z,6.72
2023-01-26T03:38:17.463Z,9.57
2023-01-26T03:42:52.743Z,9.27
2023-01-26T03:47:25.104Z,8.65
2023-01-26T03:51:56.308Z,7.05
2023-01-26T03:56:24.929Z,5.15
2023-01-26T04:00:41.297Z,3.72
2023-01-26T04:05:12.655Z,2.65
2023-01-26T04:09:29.227Z,1.58
2023-01-26T04:14:01.206Z,1.15
2023-01-26T04:18:35.651Z,0.60
2023-01-26T04:22:48.029Z,1.83
2023-01-26T04:27:02.209Z,1.15
2023-01-26T04:31:20.232Z,0.50
2023-01-26T04:35:35.146Z,0.85
2023-01-26T04:39:47.689Z,0.77
2023-01-26T04:44:00.394Z,0.95
2023-01-26T04:48:12.908Z,1.63
2023-01-26T04:52:25.542Z,0.40
2023-01-26T04:56:37.973Z,0.95
2023-01-26T05:00:54.919Z,2.60
2023-01-26T05:05:07.809Z,1.10
2023-01-26T05:09:20.518Z,2.20
2023-01-26T05:13:40.058Z,3.13
2023-01-26T05:18:08.308Z,1.98
2023-01-26T05:22:31.519Z,3.50
2023-01-26T05:27:20.912Z,0.90
2023-01-26T05:31:42.047Z,3.35
2023-01-26T05:36:06.376Z,3.45
2023-01-26T05:40:22.154Z,2.67
2023-01-26T05:44:35.454Z,4.03
2023-01-26T05:49:10.435Z,0.77
2023-01-26T05:53:24.484Z,2.15
2023-01-26T05:57:38.363Z,1.40
2023-01-26T06:01:53.052Z,2.17
2023-01-26T06:06:08.415Z,0.93
2023-01-26T06:10:31.361Z,4.43
2023-01-26T06:15:07.979Z,3.58
2023-01-26T06:19:27.489Z,1.60
2023-01-26T06:23:43.587Z,4.38
2023-01-26T06:28:01.975Z,3.10
2023-01-26T06:32:15.313Z,4.50
2023-01-26T06:36:29.941Z,4.40
2023-01-26T06:40:43.585Z,7.32
2023-01-26T06:44:57.778Z,11.73
2023-01-26T06:49:10.877Z,2.72
2023-01-26T06:53:34.172Z,2.78
2023-01-26T06:58:07.916Z,19.48
2023-01-26T07:02:22.160Z,23.02
2023-01-26T07:06:34.604Z,23.63
2023-01-26T07:10:47.000Z,21.85
2023-01-26T07:14:59.376Z,18.15
2023-01-26T07:19:12.356Z,23.25
2023-01-26T07:23:24.638Z,18.60
2023-01-26T07:27:37.017Z,10.15
2023-01-26T07:31:49.599Z,6.85
2023-01-26T07:36:08.763Z,2.60
2023-01-26T07:40:26.224Z,2.92
2023-01-26T07:44:38.612Z,1.90
2023-01-26T07:48:51.457Z,2.85
2023-01-26T07:53:03.925Z,1.40
2023-01-26T07:57:16.426Z,1.98
2023-01-26T08:01:28.826Z,2.78
2023-01-26T08:05:41.203Z,3.28
2023-01-26T08:09:54.603Z,2.67
2023-01-26T08:14:06.925Z,3.95
2023-01-26T08:18:19.468Z,2.88
2023-01-26T08:22:31.874Z,4.47
2023-01-26T08:26:44.375Z,10.15
2023-01-26T08:30:57.474Z,16.00
2023-01-26T08:35:10.464Z,45.35
2023-01-26T08:39:22.771Z,48.60
2023-01-26T08:43:35.580Z,54.90
2023-01-26T08:47:51.693Z,53.40
2023-01-26T08:52:04.416Z,47.22
2023-01-26T08:56:16.799Z,41.40
2023-01-26T09:00:29.637Z,36.38
2023-01-26T09:04:41.895Z,37.30
2023-01-26T09:08:54.390Z,41.25
2023-01-26T09:13:07.101Z,36.67
2023-01-26T09:17:19.588Z,34.03
2023-01-26T09:21:32.102Z,13.45
2023-01-26T09:25:45.062Z,4.50
2023-01-26T09:29:57.562Z,43.28
2023-01-26T09:34:09.987Z,38.50
2023-01-26T09:38:22.289Z,39.00
2023-01-26T09:42:46.695Z,52.35
2023-01-26T09:47:12.595Z,31.38
2023-01-26T09:51:35.782Z,31.25
2023-01-26T09:55:49.613Z,27.08
2023-01-26T10:00:23.120Z,25.35
2023-01-26T10:04:40.475Z,6.13
2023-01-26T10:08:54.942Z,3.42
2023-01-26T10:13:13.384Z,6.15
2023-01-26T10:17:35.581Z,2.33
2023-01-26T10:21:51.149Z,4.70
2023-01-26T10:26:24.255Z,2.92
2023-01-26T10:30:36.754Z,4.53
2023-01-26T10:34:51.613Z,2.22
2023-01-26T10:39:14.073Z,2.45
2023-01-26T10:43:28.597Z,2.67
2023-01-26T10:47:40.821Z,2.88
2023-01-26T10:52:23.046Z,3.08
2023-01-26T10:56:38.228Z,2.55
2023-01-26T11:00:57.077Z,3.38
2023-01-26T11:05:09.472Z,2.85
2023-01-26T11:09:29.651Z,3.30
2023-01-26T11:13:41.870Z,6.47
2023-01-26T11:18:04.768Z,5.32
2023-01-26T11:22:22.612Z,7.15
2023-01-26T11:26:59.621Z,5.32
2023-01-26T11:31:30.772Z,2.85
2023-01-26T11:35:52.015Z,2.15
2023-01-26T11:40:35.427Z,3.40
2023-01-26T11:45:07.926Z,3.63
2023-01-26T11:49:53.234Z,5.43
2023-01-26T11:54:42.277Z,6.65
2023-01-26T11:59:06.459Z,3.85
2023-01-26T12:03:26.382Z,3.85
2023-01-26T12:12:20.693Z,4.55
2023-01-26T12:17:15.672Z,3.67
2023-01-26T12:21:36.175Z,3.58
2023-01-26T12:25:54.827Z,5.57
2023-01-26T12:30:35.956Z,7.82
2023-01-26T12:34:53.404Z,3.40
2023-01-26T12:39:38.545Z,5.72
2023-01-26T12:44:20.045Z,2.80
2023-01-26T12:49:04.350Z,5.72
2023-01-26T12:53:19.493Z,4.55
2023-01-26T12:57:46.276Z,7.07
2023-01-26T13:01:59.114Z,6.28
2023-01-26T13:06:14.144Z,6.13
2023-01-26T13:10:29.648Z,9.32
2023-01-26T13:14:47.764Z,12.20
2023-01-26T13:19:05.084Z,17.30
2023-01-26T13:23:29.503Z,4.90
2023-01-26T13:27:46.424Z,6.85
2023-01-26T13:32:02.376Z,10.85
2023-01-26T13:36:19.739Z,9.07
2023-01-26T13:40:34.363Z,9.25
2023-01-26T13:45:06.512Z,9.15
2023-01-26T13:49:28.089Z,9.05
2023-01-26T13:53:45.732Z,8.20
2023-01-26T13:58:30.044Z,6.32
2023-01-26T14:02:49.958Z,8.48
2023-01-26T14:07:13.012Z,7.32
2023-01-26T14:11:28.861Z,7.85
2023-01-26T14:15:41.462Z,6.90
2023-01-26T14:19:53.832Z,8.43
2023-01-26T14:24:09.595Z,10.25
2023-01-26T14:28:25.653Z,16.55
2023-01-26T14:32:38.002Z,7.20
2023-01-26T14:37:06.327Z,6.13
2023-01-26T14:41:31.949Z,6.22
2023-01-26T14:45:57.132Z,5.35
2023-01-26T14:50:23.543Z,7.22
2023-01-26T14:54:40.044Z,10.95
2023-01-26T14:58:54.418Z,8.98
2023-01-26T15:03:15.256Z,10.27
2023-01-26T15:07:37.463Z,5.85
2023-01-26T15:12:17.139Z,6.68
2023-01-26T15:16:29.589Z,6.30
2023-01-26T15:20:49.176Z,3.42
2023-01-26T15:25:19.989Z,8.65
2023-01-26T15:29:36.624Z,8.52
2023-01-26T15:33:54.019Z,15.23
2023-01-26T15:38:12.439Z,17.50
2023-01-26T15:42:29.042Z,8.05
2023-01-26T15:46:41.410Z,6.22
2023-01-26T15:50:53.939Z,7.70
2023-01-26T15:55:27.926Z,9.57
2023-01-26T15:59:41.020Z,9.38
2023-01-26T16:03:53.965Z,5.90
2023-01-26T16:08:06.511Z,8.07
2023-01-26T16:12:31.271Z,23.13
2023-01-26T16:16:44.803Z,25.58
2023-01-26T16:20:57.321Z,34.55
2023-01-26T16:25:26.165Z,56.50
2023-01-26T16:29:38.510Z,59.72
2023-01-26T16:33:52.043Z,47.47
2023-01-26T16:38:05.477Z,52.42
2023-01-26T16:42:21.524Z,62.35
2023-01-26T16:46:33.993Z,52.67
2023-01-26T16:50:46.536Z,35.97
2023-01-26T16:54:59.174Z,33.72
2023-01-26T16:59:11.570Z,27.42
2023-01-26T17:03:24.457Z,24.73
2023-01-26T17:07:37.791Z,24.80
2023-01-26T17:11:50.320Z,23.20
2023-01-26T17:16:02.834Z,20.77
2023-01-26T17:20:19.122Z,27.55
2023-01-26T17:24:38.640Z,25.02
2023-01-26T17:28:56.225Z,31.33
2023-01-26T17:33:08.633Z,31.20
2023-01-26T17:37:22.108Z,37.53
2023-01-26T17:41:34.531Z,36.75
2023-01-26T17:45:46.971Z,33.28
2023-01-26T17:49:59.761Z,37.88
2023-01-26T17:54:12.055Z,40.03
2023-01-26T17:58:24.379Z,35.88
2023-01-26T18:02:38.024Z,29.90
2023-01-26T18:06:50.661Z,28.08
2023-01-26T18:11:05.539Z,33.75
2023-01-26T18:15:17.770Z,27.98
2023-01-26T18:19:30.132Z,36.70
2023-01-26T18:23:48.136Z,31.92
2023-01-26T18:28:00.698Z,45.10
2023-01-26T18:32:13.197Z,35.40
2023-01-26T18:36:26.287Z,44.42
2023-01-26T18:40:40.234Z,50.15
2023-01-26T18:45:00.945Z,43.60
2023-01-26T18:49:15.637Z,48.75
2023-01-26T18:53:29.428Z,40.60
2023-01-26T18:57:41.951Z,33.50
2023-01-26T19:01:55.686Z,36.00
2023-01-26T19:06:09.426Z,38.75
2023-01-26T19:10:21.793Z,34.85
2023-01-26T19:14:34.136Z,58.30
2023-01-26T19:18:46.591Z,55.75
2023-01-26T19:22:59.039Z,62.15
2023-01-26T19:27:11.359Z,58.42
2023-01-26T19:31:26.015Z,53.83
2023-01-26T19:35:39.639Z,56.05
2023-01-26T19:39:52.514Z,70.03
2023-01-26T19:44:05.418Z,66.30
2023-01-26T19:48:19.947Z,56.10
2023-01-26T19:52:32.286Z,44.13
2023-01-26T19:56:45.393Z,45.67
2023-01-26T20:00:59.788Z,51.55
2023-01-26T20:05:12.474Z,52.22
2023-01-26T20:09:24.972Z,50.47
2023-01-26T20:13:38.105Z,48.35
2023-01-26T20:17:53.048Z,53.70
2023-01-26T20:22:07.590Z,59.35
2023-01-26T20:26:20.378Z,53.17
2023-01-26T20:30:34.043Z,71.50
2023-01-26T20:34:47.946Z,72.78
2023-01-26T20:39:00.657Z,74.40
2023-01-26T20:43:13.035Z,17.40
2023-01-26T20:47:26.400Z,18.00
2023-01-26T20:51:42.725Z,10.38
2023-01-26T20:55:59.771Z,7.00
2023-01-26T21:00:12.995Z,7.00
2023-01-26T21:04:27.325Z,5.07
2023-01-26T21:08:40.484Z,7.82
2023-01-26T21:12:53.106Z,8.73
2023-01-26T21:17:07.810Z,6.00
2023-01-26T21:21:23.357Z,4.32
2023-01-26T21:25:35.768Z,5.22
2023-01-26T21:29:48.022Z,5.28
2023-01-26T21:34:01.259Z,5.22
2023-01-26T21:38:13.544Z,4.43
2023-01-26T21:42:26.047Z,5.65
2023-01-26T21:46:39.022Z,6.47
2023-01-26T21:51:13.085Z,5.47
2023-01-26T21:55:25.413Z,4.10
2023-01-26T21:59:37.824Z,6.75
2023-01-26T22:03:50.250Z,5.80
2023-01-26T22:08:02.567Z,6.00
2023-01-26T22:12:14.976Z,7.35
2023-01-26T22:16:29.261Z,5.18
2023-01-26T22:20:43.141Z,7.78
2023-01-26T22:24:55.607Z,4.13
2023-01-26T22:29:08.472Z,5.15
2023-01-26T22:33:20.797Z,5.53
2023-01-26T22:37:33.149Z,3.97
2023-01-26T22:41:46.036Z,4.18
2023-01-26T22:46:06.874Z,4.80
2023-01-26T22:50:19.276Z,7.70
2023-01-26T22:54:31.629Z,3.97
2023-01-26T22:58:57.008Z,8.35
2023-01-26T23:03:10.253Z,7.43
2023-01-26T23:07:24.679Z,7.03
2023-01-26T23:11:37.280Z,9.32
2023-01-26T23:15:50.769Z,11.32
2023-01-26T23:20:03.082Z,9.43
2023-01-26T23:24:15.657Z,11.95
2023-01-26T23:28:46.435Z,10.60
2023-01-26T23:32:58.821Z,10.60
2023-01-26T23:37:11.273Z,11.38
2023-01-26T23:41:24.163Z,10.93
2023-01-26T23:45:36.834Z,12.20
2023-01-26T23:49:58.142Z,13.95
2023-01-26T23:54:12.539Z,14.63
2023-01-26T23:58:25.213Z,17.83
